Ivy, VA (22945)

3:16 AM EDT on August 26, 2016 (GMT -0400)
Ivy at Willow Oak | | Change Station

Elev 640 ft 38.07 °N, 78.59 °W | Updated 36 seconds ago

Clear
Clear
73.9 °F
Feels Like 73.9 °F
N
0.0
Wind Variable Wind from NW
Gusts 0.0 mph

Today
High -- | Low -- °F
--% Chance of Precip.
Yesterday
High -- | Low -- °F
Precip. -- in
Pressure 30.04 in
Visibility 6.0 miles
Clouds Clear
Dew Point 74 °F
Humidity 99%
Rainfall 0.00 in
Snow Depth Not available.
6:39 AM 7:51 PM
Last Quarter, 37% visible
METAR KCHO 260653Z 00000KT 6SM BR CLR 24/23 A3006 RMK AO2 SLP171 T02440228
Pressure 30.04 in
Visibility 6.0 miles
Clouds Clear
Dew Point 74 °F
Humidity 99%
Rainfall 0.00 in
Snow Depth Not available.
6:39 AM 7:51 PM
Last Quarter, 37% visible
METAR KCHO 260653Z 00000KT 6SM BR CLR 24/23 A3006 RMK AO2 SLP171 T02440228

10-Day Weather Forecast

Almanac

Astronomy

Aug. 26, 2016 Rise Set
Actual Time
Civil Twilight
Nautical Twilight
Astronomical Twilight
Moon
Length of Visible Light
Length of Day
Tomorrow will be .
, % of the Moon is Illuminated

Today's Extremes

State Highs State Lows

Community

WunderPhotos

Upload Photos

1,935,062 photos uploaded!

WunderBlog® & News

Nearby

Air Quality

  Air Quality AQ Index Pollutant
Not available.

Snow Depth

Station Depth Elevation

Earthquake Activity

City Distance Mag. Time & Date
Minimum magnitude displayed is 2.5.

Coastal Water Temperatures

Place Temperature

Stations

Nearby Weather Stations

Station Location Temp. Windchill Dew Point Humidity Wind Precip. Elev Updated Type
                   

Watches & Warnings

There are currently no watches in effect.